Time;durP1;ratioP1;P1;durP2;ratioP2;P2;SDS_P1;SDS_P2;PMS_P1;PMS_P2;Temp;Humidity;BMP_temperature;BMP_pressure;BME280_temperature;BME280_humidity;BME280_pressure;Samples;Min_cycle;Max_cycle;Signal;HPM_P1;HPM_P2
2022/02/12 00:01:04;;;;;;;11.00;5.32;;;19.20;91.30;;;;;;4193066;28;20715;-73
2022/02/12 00:03:06;;;;;;;12.20;6.40;;;19.20;91.20;;;;;;4192360;28;20664;-75
2022/02/12 00:05:11;;;;;;;9.35;5.68;;;19.20;91.30;;;;;;4193904;28;20227;-75
2022/02/12 00:07:14;;;;;;;10.07;5.72;;;19.20;91.30;;;;;;4192650;28;20219;-75
2022/02/12 00:09:16;;;;;;;10.48;5.55;;;19.20;91.30;;;;;;4191484;28;20264;-75
2022/02/12 00:11:19;;;;;;;11.82;5.70;;;19.20;91.20;;;;;;4193718;28;20280;-75
2022/02/12 00:13:21;;;;;;;8.85;5.05;;;19.20;91.20;;;;;;4193747;28;20265;-75
2022/02/12 00:15:23;;;;;;;12.13;5.60;;;19.20;91.20;;;;;;4193711;28;20265;-75
2022/02/12 00:17:26;;;;;;;13.95;5.93;;;19.20;91.20;;;;;;4192898;28;20242;-75
2022/02/12 00:19:28;;;;;;;11.88;5.95;;;19.20;91.20;;;;;;4193685;28;20215;-75
2022/02/12 00:21:32;;;;;;;9.90;5.60;;;19.10;91.10;;;;;;4191911;28;20226;-75
2022/02/12 00:23:34;;;;;;;6.65;5.28;;;19.10;91.10;;;;;;4193621;28;20625;-75
2022/02/12 00:25:36;;;;;;;9.85;5.57;;;19.10;91.20;;;;;;4193619;28;20615;-75
2022/02/12 00:27:39;;;;;;;10.73;6.07;;;19.10;91.10;;;;;;4192913;28;20223;-75
2022/02/12 00:29:41;;;;;;;9.35;5.65;;;19.10;91.10;;;;;;4192650;28;20223;-75
2022/02/12 00:31:43;;;;;;;8.82;5.43;;;19.10;91.10;;;;;;4193512;28;20276;-75
2022/02/12 00:33:46;;;;;;;11.18;5.43;;;19.10;91.10;;;;;;4193052;28;20337;-75
2022/02/12 00:35:48;;;;;;;9.70;5.35;;;19.10;91.00;;;;;;4192170;28;20239;-75
2022/02/12 00:37:52;;;;;;;9.10;5.60;;;19.10;91.00;;;;;;4192360;28;20296;-75
2022/02/12 00:39:55;;;;;;;8.82;4.90;;;19.10;91.10;;;;;;4192333;28;20269;-75
2022/02/12 00:41:57;;;;;;;10.90;5.85;;;19.10;91.00;;;;;;4192441;28;20327;-75
2022/02/12 00:43:59;;;;;;;9.90;5.30;;;19.10;91.00;;;;;;4192595;28;20219;-75
2022/02/12 00:46:02;;;;;;;10.63;5.63;;;19.10;91.00;;;;;;4192114;28;20219;-75
2022/02/12 00:48:07;;;;;;;12.05;5.85;;;19.10;91.00;;;;;;4191992;28;20215;-75
2022/02/12 00:50:10;;;;;;;10.50;5.43;;;19.00;90.90;;;;;;4192247;28;20272;-75
2022/02/12 00:52:13;;;;;;;11.13;5.50;;;19.00;91.00;;;;;;4191529;28;20219;-75
2022/02/12 00:54:17;;;;;;;11.10;6.63;;;19.00;90.90;;;;;;4191865;28;20745;-75
2022/02/12 00:56:19;;;;;;;11.60;6.22;;;19.00;90.90;;;;;;4192409;28;20219;-75
2022/02/12 00:58:21;;;;;;;8.98;4.97;;;19.00;90.90;;;;;;4192191;28;20996;-75
2022/02/12 01:00:24;;;;;;;8.80;5.53;;;19.00;91.00;;;;;;4191861;28;20630;-75
2022/02/12 01:02:27;;;;;;;10.00;5.60;;;19.00;90.90;;;;;;4191751;28;20222;-75
2022/02/12 01:04:29;;;;;;;12.52;5.72;;;19.00;90.90;;;;;;4191234;28;20215;-75
2022/02/12 01:06:32;;;;;;;11.50;5.70;;;19.00;90.90;;;;;;4192121;28;20223;-75
2022/02/12 01:08:34;;;;;;;10.23;5.68;;;18.90;90.80;;;;;;4190094;28;20211;-75
2022/02/12 01:10:38;;;;;;;9.93;5.50;;;18.90;90.80;;;;;;4192451;28;20219;-75
2022/02/12 01:12:41;;;;;;;9.60;5.70;;;18.90;90.90;;;;;;4192395;28;20215;-75
2022/02/12 01:14:43;;;;;;;10.77;5.60;;;18.90;90.80;;;;;;4191710;28;20223;-75
2022/02/12 01:16:45;;;;;;;13.75;5.70;;;18.90;90.80;;;;;;4191803;28;20211;-75
2022/02/12 01:18:47;;;;;;;10.35;5.93;;;18.90;90.80;;;;;;4191697;28;20234;-75
2022/02/12 01:20:51;;;;;;;10.90;6.00;;;18.90;90.90;;;;;;4191792;28;20296;-75
2022/02/12 01:22:53;;;;;;;11.10;5.88;;;18.90;90.80;;;;;;4191556;28;20623;-75
2022/02/12 01:24:56;;;;;;;10.90;5.53;;;18.90;90.80;;;;;;4190975;28;20211;-75
2022/02/12 01:26:59;;;;;;;8.18;5.18;;;18.90;90.80;;;;;;4191524;28;20219;-75
2022/02/12 01:29:02;;;;;;;13.20;6.18;;;18.90;90.80;;;;;;4191305;28;20253;-75
2022/02/12 01:31:04;;;;;;;12.60;6.22;;;18.90;91.20;;;;;;4191581;28;20264;-75
2022/02/12 01:33:07;;;;;;;10.43;5.70;;;18.90;90.80;;;;;;4191614;28;20249;-75
2022/02/12 01:35:10;;;;;;;10.02;6.20;;;18.90;90.90;;;;;;4191989;28;20280;-75
2022/02/12 01:37:12;;;;;;;9.25;5.75;;;18.90;90.80;;;;;;4192122;28;20219;-75
2022/02/12 01:39:15;;;;;;;10.20;5.93;;;18.80;90.80;;;;;;4191972;28;20250;-75
2022/02/12 01:41:17;;;;;;;13.68;6.30;;;18.80;90.80;;;;;;4191689;28;20219;-75
2022/02/12 01:43:21;;;;;;;10.15;5.90;;;18.80;90.80;;;;;;4189812;28;20219;-75
2022/02/12 01:45:23;;;;;;;9.25;5.68;;;18.80;90.80;;;;;;4191189;28;20219;-75
2022/02/12 01:47:26;;;;;;;9.30;6.20;;;18.80;90.80;;;;;;4187989;28;20215;-75
2022/02/12 01:49:29;;;;;;;11.82;5.78;;;18.80;90.80;;;;;;4191280;28;20215;-75
2022/02/12 01:51:32;;;;;;;10.27;5.97;;;18.80;90.80;;;;;;4191779;28;20227;-75
2022/02/12 01:53:34;;;;;;;10.70;6.40;;;18.80;90.80;;;;;;4191668;28;20227;-75
2022/02/12 01:55:37;;;;;;;12.57;6.38;;;18.80;90.80;;;;;;4191007;28;20215;-75
2022/02/12 01:57:39;;;;;;;9.85;5.97;;;18.80;90.80;;;;;;4191798;28;20272;-75
2022/02/12 01:59:43;;;;;;;10.82;6.68;;;18.80;90.70;;;;;;4190882;28;20242;-75
2022/02/12 02:01:45;;;;;;;9.40;5.40;;;18.80;90.80;;;;;;4191537;28;20243;-74
2022/02/12 02:03:48;;;;;;;8.25;5.55;;;18.70;90.70;;;;;;4191550;28;21068;-75
2022/02/12 02:05:50;;;;;;;11.48;6.78;;;18.80;90.70;;;;;;4191742;28;20676;-74
2022/02/12 02:07:54;;;;;;;8.38;5.55;;;18.80;90.70;;;;;;4191401;28;20461;-74
2022/02/12 02:09:57;;;;;;;10.98;5.95;;;18.70;90.70;;;;;;4192044;28;20219;-74
2022/02/12 02:11:59;;;;;;;10.68;5.68;;;18.70;90.70;;;;;;4191826;28;20313;-74
2022/02/12 02:14:02;;;;;;;10.68;5.47;;;18.70;90.70;;;;;;4191736;28;20215;-74
2022/02/12 02:16:11;;;;;;;9.90;5.65;;;18.70;90.70;;;;;;4190187;28;20266;-74
2022/02/12 02:18:13;;;;;;;9.98;5.85;;;18.70;90.70;;;;;;4191302;28;20222;-74
2022/02/12 02:20:16;;;;;;;12.63;6.40;;;18.70;90.60;;;;;;4191386;28;20220;-74
2022/02/12 02:22:21;;;;;;;10.30;6.00;;;18.70;90.70;;;;;;4191673;28;20211;-74
2022/02/12 02:24:25;;;;;;;12.35;6.38;;;18.70;90.70;;;;;;4191524;28;20220;-74
2022/02/12 02:26:27;;;;;;;10.18;5.93;;;18.70;90.60;;;;;;4191814;28;20268;-74
2022/02/12 02:28:30;;;;;;;12.15;6.40;;;18.70;90.60;;;;;;4194160;28;20211;-74
2022/02/12 02:30:32;;;;;;;9.07;5.72;;;18.70;90.60;;;;;;4194441;28;20210;-74
2022/02/12 02:32:35;;;;;;;10.30;6.00;;;18.60;90.60;;;;;;4194536;28;20276;-74
2022/02/12 02:34:39;;;;;;;10.00;5.85;;;18.60;90.60;;;;;;4193159;28;20219;-74
2022/02/12 02:36:41;;;;;;;10.73;5.90;;;18.60;90.60;;;;;;4194155;28;20261;-74
2022/02/12 02:38:44;;;;;;;9.82;5.78;;;18.60;90.60;;;;;;4194093;28;20284;-74
2022/02/12 02:40:48;;;;;;;10.38;5.88;;;18.60;90.60;;;;;;4194257;28;20245;-74
2022/02/12 02:42:52;;;;;;;9.77;5.78;;;18.60;90.60;;;;;;4193037;28;20215;-74
2022/02/12 02:44:54;;;;;;;10.35;5.70;;;18.60;90.60;;;;;;4192965;28;20215;-74
2022/02/12 02:46:56;;;;;;;12.57;6.38;;;18.60;90.50;;;;;;4194173;28;20215;-74
2022/02/12 02:48:58;;;;;;;8.82;6.03;;;18.60;90.50;;;;;;4193995;28;20264;-74
2022/02/12 02:58:01;;;;;;;12.90;5.88;;;18.50;90.40;;;;;;4194704;28;20900;-74
2022/02/12 03:00:04;;;;;;;9.15;5.82;;;18.50;90.50;;;;;;4193381;28;20235;-74
2022/02/12 03:02:06;;;;;;;13.05;6.00;;;18.50;90.50;;;;;;4193515;28;20280;-74
2022/02/12 03:04:09;;;;;;;9.50;5.60;;;18.50;90.50;;;;;;4194169;28;20211;-75
2022/02/12 03:06:13;;;;;;;9.38;5.55;;;18.50;90.50;;;;;;4194038;28;20211;-74
2022/02/12 03:08:15;;;;;;;11.40;5.80;;;18.50;90.50;;;;;;4191059;28;20676;-74
2022/02/12 03:10:17;;;;;;;10.05;6.10;;;18.40;90.40;;;;;;4194053;28;20264;-74
2022/02/12 03:12:20;;;;;;;11.43;5.80;;;18.50;90.40;;;;;;4192326;28;20664;-74
2022/02/12 03:14:23;;;;;;;12.30;6.20;;;18.50;90.40;;;;;;4193780;28;20667;-74
2022/02/12 03:16:26;;;;;;;11.88;6.45;;;18.50;90.50;;;;;;4193572;28;20631;-74
2022/02/12 03:18:28;;;;;;;11.02;6.03;;;18.40;90.40;;;;;;4193785;28;20265;-74
2022/02/12 03:20:30;;;;;;;12.00;6.05;;;18.40;90.70;;;;;;4193573;28;20282;-74
2022/02/12 03:22:32;;;;;;;9.63;5.85;;;18.50;90.40;;;;;;4194374;28;20261;-74
2022/02/12 03:24:35;;;;;;;11.35;6.07;;;18.40;90.30;;;;;;4192025;28;20277;-74
2022/02/12 03:26:38;;;;;;;9.65;5.88;;;18.40;90.30;;;;;;4193088;28;20219;-74
2022/02/12 03:28:40;;;;;;;10.45;6.13;;;18.40;90.30;;;;;;4193570;28;20265;-74
2022/02/12 03:30:46;;;;;;;9.07;5.90;;;18.40;90.30;;;;;;4193694;28;20569;-74
2022/02/12 03:32:49;;;;;;;10.10;5.68;;;18.40;90.30;;;;;;4193413;28;20227;-74
2022/02/12 03:34:51;;;;;;;10.70;5.60;;;18.40;90.30;;;;;;4189914;28;20215;-74
2022/02/12 03:36:53;;;;;;;10.27;5.43;;;18.40;90.30;;;;;;4193943;28;20280;-74
2022/02/12 03:38:56;;;;;;;10.55;6.13;;;18.40;90.30;;;;;;4193697;28;20279;-74
2022/02/12 03:41:00;;;;;;;8.90;5.43;;;18.40;90.30;;;;;;4193293;28;20215;-74
2022/02/12 03:43:03;;;;;;;10.02;5.55;;;18.40;90.30;;;;;;4192753;28;20215;-74
2022/02/12 03:45:06;;;;;;;9.10;5.72;;;18.40;90.30;;;;;;4190113;28;20596;-74
2022/02/12 03:47:11;;;;;;;11.60;6.25;;;18.40;90.40;;;;;;4189817;28;20211;-74
2022/02/12 03:49:13;;;;;;;10.38;6.05;;;18.40;90.30;;;;;;4192736;28;20616;-74
2022/02/12 03:51:17;;;;;;;8.85;5.57;;;18.30;90.20;;;;;;4193289;28;20280;-74
2022/02/12 03:53:21;;;;;;;12.75;5.80;;;18.40;90.30;;;;;;4193344;28;20280;-74
2022/02/12 03:55:23;;;;;;;9.80;5.50;;;18.40;90.20;;;;;;4192960;28;20686;-74
2022/02/12 03:57:25;;;;;;;9.63;5.47;;;18.30;90.20;;;;;;4193731;28;20268;-74
2022/02/12 03:59:28;;;;;;;12.50;5.97;;;18.30;90.20;;;;;;4192447;28;20238;-74
2022/02/12 04:01:30;;;;;;;10.82;5.72;;;18.40;90.20;;;;;;4193245;28;20222;-73
2022/02/12 04:03:34;;;;;;;11.43;6.18;;;18.30;90.10;;;;;;4193253;28;20670;-74
2022/02/12 04:05:37;;;;;;;10.70;6.03;;;18.30;90.10;;;;;;4193092;28;20280;-74
2022/02/12 04:07:41;;;;;;;11.95;6.05;;;18.30;90.10;;;;;;4193413;28;20304;-74
2022/02/12 04:09:43;;;;;;;10.40;5.78;;;18.30;90.20;;;;;;4193110;28;20655;-74
2022/02/12 04:11:46;;;;;;;10.07;5.85;;;18.30;90.40;;;;;;4193681;28;20648;-74
2022/02/12 04:13:48;;;;;;;11.05;5.72;;;18.30;90.10;;;;;;4192720;28;20264;-74
2022/02/12 04:15:50;;;;;;;9.85;5.90;;;18.30;90.10;;;;;;4191645;28;20268;-74
2022/02/12 04:17:53;;;;;;;8.85;5.70;;;18.30;90.10;;;;;;4192772;28;20219;-74
2022/02/12 04:19:58;;;;;;;11.25;5.70;;;18.30;90.10;;;;;;4192835;28;20638;-74
2022/02/12 04:22:00;;;;;;;9.85;5.57;;;18.30;90.10;;;;;;4191939;28;20264;-74
2022/02/12 04:24:03;;;;;;;11.32;5.18;;;18.30;90.10;;;;;;4192626;28;20211;-74
2022/02/12 04:26:08;;;;;;;9.30;5.85;;;18.30;90.10;;;;;;4192624;28;22073;-74
2022/02/12 04:28:12;;;;;;;8.77;5.35;;;18.20;90.10;;;;;;4192719;28;20223;-74
2022/02/12 04:30:15;;;;;;;9.95;5.57;;;18.30;90.10;;;;;;4192551;28;20348;-74
2022/02/12 04:32:20;;;;;;;10.70;5.72;;;18.30;90.10;;;;;;4191567;28;20273;-74
2022/02/12 04:34:22;;;;;;;8.38;5.50;;;18.20;90.10;;;;;;4191829;28;20284;-74
2022/02/12 04:36:26;;;;;;;8.60;5.45;;;18.20;90.00;;;;;;4192808;28;20211;-74
2022/02/12 04:38:28;;;;;;;8.60;5.32;;;18.20;90.00;;;;;;4192851;28;20218;-74
2022/02/12 04:40:31;;;;;;;10.27;5.63;;;18.20;90.10;;;;;;4191679;28;20679;-74
2022/02/12 04:42:33;;;;;;;10.35;6.00;;;18.20;90.00;;;;;;4191761;28;20249;-74
2022/02/12 04:44:36;;;;;;;7.53;4.82;;;18.20;90.00;;;;;;4190623;28;20223;-74
2022/02/12 04:46:38;;;;;;;8.80;4.90;;;18.20;90.00;;;;;;4191956;28;20223;-74
2022/02/12 04:48:40;;;;;;;8.95;5.28;;;18.20;90.00;;;;;;4192454;28;20226;-74
2022/02/12 04:50:43;;;;;;;8.73;5.50;;;18.20;90.00;;;;;;4192128;28;20215;-74
2022/02/12 04:52:46;;;;;;;10.77;5.50;;;18.20;90.00;;;;;;4192720;28;20234;-74
2022/02/12 04:54:49;;;;;;;11.02;5.88;;;18.20;90.00;;;;;;4193012;28;20219;-74
2022/02/12 04:56:51;;;;;;;7.50;5.25;;;18.20;90.00;;;;;;4192932;28;20260;-74
2022/02/12 04:58:54;;;;;;;10.57;5.45;;;18.20;90.00;;;;;;4191728;28;20651;-74
2022/02/12 05:00:56;;;;;;;12.40;5.50;;;18.10;90.00;;;;;;4192809;28;20239;-74
2022/02/12 05:02:58;;;;;;;8.82;5.30;;;18.20;90.00;;;;;;4192797;28;20243;-74
2022/02/12 05:05:00;;;;;;;8.50;5.35;;;18.20;90.00;;;;;;4193277;28;20219;-74
2022/02/12 05:07:03;;;;;;;12.05;5.70;;;18.20;90.00;;;;;;4190373;28;20227;-74
2022/02/12 05:09:07;;;;;;;7.72;4.90;;;18.10;89.90;;;;;;4192783;28;20284;-74
2022/02/12 05:11:09;;;;;;;9.55;5.10;;;18.20;90.00;;;;;;4192558;28;20241;-74
2022/02/12 05:13:12;;;;;;;11.60;5.18;;;18.20;90.00;;;;;;4192010;28;20218;-74
2022/02/12 05:15:14;;;;;;;10.52;5.85;;;18.10;89.90;;;;;;4192471;28;20294;-74
2022/02/12 05:17:16;;;;;;;9.82;5.47;;;18.10;89.80;;;;;;4192212;28;20222;-74
2022/02/12 05:19:19;;;;;;;10.68;5.35;;;18.10;89.90;;;;;;4191436;28;20645;-74
2022/02/12 05:21:21;;;;;;;7.55;4.75;;;18.10;89.50;;;;;;4191899;28;20235;-74
2022/02/12 05:23:23;;;;;;;13.23;5.43;;;18.10;89.80;;;;;;4190566;28;20222;-74
2022/02/12 05:25:27;;;;;;;9.40;4.63;;;18.10;89.80;;;;;;4191917;28;20215;-74
2022/02/12 05:27:30;;;;;;;9.88;5.38;;;18.10;89.60;;;;;;4192102;28;20219;-74
2022/02/12 05:29:33;;;;;;;10.60;5.15;;;18.10;89.40;;;;;;4191621;28;20227;-74
2022/02/12 05:31:36;;;;;;;9.85;5.38;;;18.00;89.50;;;;;;4190256;28;20215;-74
2022/02/12 05:33:38;;;;;;;8.55;4.88;;;18.10;90.10;;;;;;4191115;28;20230;-74
2022/02/12 05:35:41;;;;;;;9.48;5.03;;;18.00;89.50;;;;;;4187445;28;20277;-74
2022/02/12 05:37:44;;;;;;;8.10;4.88;;;18.00;89.40;;;;;;4190040;28;20302;-74
2022/02/12 05:39:46;;;;;;;9.93;4.50;;;18.10;89.50;;;;;;4190227;28;20269;-74
2022/02/12 05:41:50;;;;;;;8.75;4.60;;;18.00;89.50;;;;;;4190642;28;20235;-74
2022/02/12 05:43:52;;;;;;;10.05;4.90;;;18.00;89.30;;;;;;4191201;28;20289;-74
2022/02/12 05:45:54;;;;;;;10.32;5.10;;;18.00;89.30;;;;;;4191219;28;20223;-74
2022/02/12 05:47:57;;;;;;;8.90;5.00;;;18.00;89.30;;;;;;4190991;28;20272;-74
2022/02/12 05:49:59;;;;;;;8.48;4.80;;;18.00;89.40;;;;;;4191729;28;20253;-74
2022/02/12 05:52:01;;;;;;;8.73;4.88;;;18.00;89.40;;;;;;4191780;28;20261;-74
2022/02/12 05:54:05;;;;;;;9.55;4.65;;;18.00;89.30;;;;;;4191470;28;20208;-74
2022/02/12 05:56:08;;;;;;;11.32;5.22;;;18.00;89.40;;;;;;4191256;28;20215;-74
2022/02/12 05:58:11;;;;;;;9.80;4.93;;;17.90;89.40;;;;;;4191186;28;20223;-74
2022/02/12 06:00:15;;;;;;;9.75;4.63;;;18.00;89.30;;;;;;4191041;28;20224;-74
2022/02/12 06:02:17;;;;;;;9.90;4.97;;;18.00;89.20;;;;;;4192498;28;20231;-74
2022/02/12 06:04:20;;;;;;;7.68;4.85;;;18.00;89.00;;;;;;4194500;28;20223;-74
2022/02/12 06:06:22;;;;;;;9.50;4.72;;;18.00;89.00;;;;;;4194771;28;20219;-74
2022/02/12 06:08:24;;;;;;;8.38;4.28;;;18.00;89.00;;;;;;4194753;28;20227;-74
2022/02/12 06:10:27;;;;;;;7.97;4.30;;;18.00;89.60;;;;;;4194224;28;20215;-74
2022/02/12 06:12:29;;;;;;;8.65;4.85;;;17.90;88.80;;;;;;4194308;28;20348;-74
2022/02/12 06:14:33;;;;;;;8.82;4.95;;;17.90;88.70;;;;;;4192489;28;20211;-74
2022/02/12 06:16:35;;;;;;;9.90;5.05;;;17.90;88.80;;;;;;4193887;28;20268;-74
2022/02/12 06:18:38;;;;;;;10.10;4.63;;;17.90;89.50;;;;;;4194172;28;20227;-74
2022/02/12 06:20:40;;;;;;;8.95;4.50;;;17.90;88.60;;;;;;4194042;28;20741;-74
2022/02/12 06:22:43;;;;;;;8.88;4.80;;;17.90;88.70;;;;;;4194451;28;20212;-74
2022/02/12 06:24:45;;;;;;;9.27;4.78;;;17.90;88.60;;;;;;4194677;28;20219;-74
2022/02/12 06:26:53;;;;;;;8.32;4.45;;;17.90;88.90;;;;;;4194875;28;20640;-74
2022/02/12 06:28:56;;;;;;;9.20;4.93;;;17.90;88.80;;;;;;4194721;28;20222;-74
2022/02/12 06:31:01;;;;;;;10.15;4.88;;;17.90;88.90;;;;;;4191817;28;20441;-74
2022/02/12 06:33:03;;;;;;;8.60;4.50;;;17.90;88.90;;;;;;4194464;28;20250;-74
2022/02/12 06:35:06;;;;;;;9.15;4.70;;;17.80;88.90;;;;;;4194170;28;20280;-74
2022/02/12 06:37:08;;;;;;;8.70;4.68;;;17.90;88.90;;;;;;4194799;28;20223;-74
2022/02/12 06:39:10;;;;;;;7.35;4.13;;;17.80;88.60;;;;;;4194485;28;20214;-74
2022/02/12 06:41:12;;;;;;;8.00;4.70;;;17.90;88.80;;;;;;4194172;28;21017;-74
2022/02/12 06:43:15;;;;;;;8.63;4.20;;;17.90;88.50;;;;;;4194012;28;20222;-74
2022/02/12 06:45:18;;;;;;;8.13;4.35;;;17.90;88.70;;;;;;4194639;28;20219;-74
2022/02/12 06:47:21;;;;;;;10.02;4.93;;;17.80;88.50;;;;;;4193256;28;20648;-74
2022/02/12 06:49:24;;;;;;;8.20;4.25;;;17.80;88.60;;;;;;4193194;28;21052;-74
2022/02/12 06:51:26;;;;;;;9.40;4.60;;;17.80;88.40;;;;;;4194350;28;20253;-74
2022/02/12 06:53:28;;;;;;;10.30;4.45;;;17.80;88.30;;;;;;4194617;28;20223;-74
2022/02/12 06:55:31;;;;;;;6.45;3.88;;;17.80;88.30;;;;;;4194456;28;20223;-74
2022/02/12 06:57:33;;;;;;;7.95;3.92;;;17.80;88.40;;;;;;4193618;28;20355;-74
2022/02/12 06:59:36;;;;;;;6.85;3.78;;;17.80;88.50;;;;;;4193828;28;20271;-74
2022/02/12 07:01:38;;;;;;;9.30;4.78;;;17.80;88.50;;;;;;4193843;28;20243;-74
2022/02/12 07:03:42;;;;;;;7.72;4.13;;;17.80;88.40;;;;;;4194374;28;20280;-74
2022/02/12 07:05:44;;;;;;;8.50;4.50;;;17.80;88.30;;;;;;4192734;28;20222;-74
2022/02/12 07:07:49;;;;;;;9.48;4.95;;;17.80;88.20;;;;;;4193630;28;20281;-74
2022/02/12 07:09:51;;;;;;;9.70;4.18;;;17.80;88.60;;;;;;4193556;28;21830;-74
2022/02/12 07:11:53;;;;;;;7.72;4.18;;;17.80;88.60;;;;;;4193428;28;20207;-74
2022/02/12 07:13:56;;;;;;;9.55;4.22;;;17.80;88.60;;;;;;4193564;28;20265;-74
2022/02/12 07:16:01;;;;;;;7.22;3.85;;;17.80;88.50;;;;;;4194152;28;20247;-74
2022/02/12 07:18:04;;;;;;;7.38;4.22;;;17.80;88.50;;;;;;4194258;28;20215;-74
2022/02/12 07:20:10;;;;;;;7.65;4.47;;;17.80;88.70;;;;;;4193616;28;20241;-74
2022/02/12 07:22:12;;;;;;;9.55;4.20;;;17.80;88.80;;;;;;4191572;28;20227;-74
2022/02/12 07:24:14;;;;;;;8.65;4.40;;;17.70;88.50;;;;;;4190011;28;20260;-74
2022/02/12 07:26:17;;;;;;;8.07;4.45;;;17.80;88.70;;;;;;4193468;28;20211;-74
2022/02/12 07:28:19;;;;;;;6.50;3.90;;;17.80;89.40;;;;;;4192951;28;20215;-74
2022/02/12 07:30:22;;;;;;;8.15;4.05;;;17.80;88.50;;;;;;4192463;28;20284;-74
2022/02/12 07:32:25;;;;;;;7.70;3.50;;;17.70;88.50;;;;;;4193322;28;20226;-74
2022/02/12 07:34:27;;;;;;;10.23;4.65;;;17.80;88.30;;;;;;4193590;28;20633;-74
2022/02/12 07:36:31;;;;;;;8.75;3.90;;;17.70;88.20;;;;;;4192922;28;20257;-74
2022/02/12 07:38:33;;;;;;;7.30;4.28;;;17.70;88.20;;;;;;4193435;28;20227;-74
2022/02/12 07:40:35;;;;;;;7.75;4.03;;;17.70;88.20;;;;;;4192481;28;20280;-74
2022/02/12 07:42:38;;;;;;;7.22;4.00;;;17.70;88.30;;;;;;4193027;28;20288;-74
2022/02/12 07:44:40;;;;;;;8.50;4.05;;;17.70;88.20;;;;;;4193394;28;20659;-74
2022/02/12 07:46:42;;;;;;;8.60;4.05;;;17.70;88.50;;;;;;4193256;28;20215;-74
2022/02/12 07:48:45;;;;;;;8.77;4.07;;;17.70;88.40;;;;;;4193227;28;20608;-74
2022/02/12 07:50:47;;;;;;;7.93;3.75;;;17.70;88.30;;;;;;4193665;28;20261;-74
2022/02/12 07:52:52;;;;;;;7.55;3.97;;;17.70;88.50;;;;;;4193453;28;20211;-74
2022/02/12 07:54:54;;;;;;;8.27;4.22;;;17.70;88.20;;;;;;4193223;28;20260;-74
2022/02/12 07:56:57;;;;;;;7.68;4.18;;;17.70;89.10;;;;;;4192577;28;20219;-74
2022/02/12 07:59:00;;;;;;;7.82;4.30;;;17.70;88.30;;;;;;4192772;28;20703;-74
2022/02/12 08:01:03;;;;;;;7.85;4.22;;;17.70;88.50;;;;;;4193069;28;20272;-74
2022/02/12 08:03:05;;;;;;;7.97;4.03;;;17.70;88.20;;;;;;4192416;28;20256;-74
2022/02/12 08:05:09;;;;;;;8.38;4.07;;;17.60;88.10;;;;;;4192935;28;20219;-74
2022/02/12 08:07:28;;;;;;;8.55;3.80;;;17.50;88.50;;;;;;4192885;28;20675;-74
2022/02/12 08:09:32;;;;;;;8.10;3.78;;;17.50;88.50;;;;;;4193667;28;20219;-74
2022/02/12 08:11:38;;;;;;;5.78;3.70;;;17.60;88.20;;;;;;4192237;28;20227;-74
2022/02/12 08:13:40;;;;;;;6.72;3.78;;;17.60;88.40;;;;;;4192715;28;21792;-74
2022/02/12 08:15:43;;;;;;;10.07;3.80;;;17.70;88.60;;;;;;4192949;28;20241;-74
2022/02/12 08:17:45;;;;;;;8.02;3.92;;;17.80;88.50;;;;;;4193008;28;20291;-74
2022/02/12 08:19:48;;;;;;;8.27;3.92;;;17.80;88.50;;;;;;4192560;28;20687;-74
2022/02/12 08:21:51;;;;;;;6.97;3.95;;;17.90;88.60;;;;;;4192814;28;20703;-74
2022/02/12 08:23:54;;;;;;;8.05;3.83;;;17.90;88.70;;;;;;4190553;28;20211;-74
2022/02/12 08:25:57;;;;;;;8.05;4.10;;;17.90;88.90;;;;;;4193370;28;20215;-74
2022/02/12 08:28:00;;;;;;;7.03;3.38;;;17.90;89.00;;;;;;4191694;28;20281;-73
2022/02/12 08:30:04;;;;;;;6.05;3.47;;;18.00;89.50;;;;;;4188803;28;20265;-74
2022/02/12 08:32:08;;;;;;;7.97;3.38;;;18.00;89.50;;;;;;4190896;28;20204;-74
2022/02/12 08:34:11;;;;;;;6.78;4.10;;;18.00;89.80;;;;;;4192814;28;20264;-74
2022/02/12 08:36:13;;;;;;;8.07;3.53;;;18.00;89.80;;;;;;4192974;28;20256;-74
2022/02/12 08:38:15;;;;;;;7.50;3.33;;;18.00;89.80;;;;;;4193634;28;20233;-74
2022/02/12 08:40:19;;;;;;;7.32;3.40;;;18.00;89.80;;;;;;4194156;28;20233;-74
2022/02/12 08:42:23;;;;;;;7.05;3.75;;;18.00;90.00;;;;;;4192526;28;20707;-74
2022/02/12 08:44:25;;;;;;;6.28;3.30;;;18.00;90.10;;;;;;4193793;28;20211;-74
2022/02/12 08:46:27;;;;;;;8.02;3.03;;;18.00;90.10;;;;;;4190518;28;20701;-74
2022/02/12 08:48:31;;;;;;;8.32;3.60;;;18.10;90.30;;;;;;4191667;28;20648;-74
2022/02/12 08:50:33;;;;;;;6.97;3.53;;;18.10;90.30;;;;;;4193195;28;20219;-74
2022/02/12 08:52:36;;;;;;;6.00;3.25;;;18.10;90.30;;;;;;4193054;28;20264;-74
2022/02/12 08:54:38;;;;;;;6.22;3.70;;;18.10;90.30;;;;;;4192242;28;20841;-74
2022/02/12 08:56:42;;;;;;;7.15;3.85;;;18.20;90.40;;;;;;4193199;28;20218;-74
2022/02/12 08:58:45;;;;;;;7.78;3.28;;;18.20;90.50;;;;;;4193142;28;20219;-74
2022/02/12 09:00:48;;;;;;;8.00;3.75;;;18.20;90.50;;;;;;4193664;28;20701;-74
2022/02/12 09:02:50;;;;;;;5.05;2.88;;;18.20;90.50;;;;;;4192738;28;20284;-74
2022/02/12 09:04:52;;;;;;;6.47;3.47;;;18.20;90.50;;;;;;4191295;28;20611;-74
2022/02/12 09:06:55;;;;;;;7.07;3.40;;;18.20;90.50;;;;;;4193280;28;20725;-74
2022/02/12 09:08:58;;;;;;;4.97;2.95;;;18.20;90.50;;;;;;4193187;28;20248;-74
2022/02/12 09:11:00;;;;;;;6.53;3.22;;;18.20;90.70;;;;;;4193253;28;20227;-74
2022/02/12 09:13:02;;;;;;;7.03;3.58;;;18.20;90.90;;;;;;4192991;28;20597;-74
2022/02/12 09:15:07;;;;;;;5.18;3.53;;;18.20;90.70;;;;;;4193075;28;20215;-74
2022/02/12 09:17:10;;;;;;;6.93;2.97;;;18.20;90.60;;;;;;4192498;28;20227;-74
2022/02/12 09:19:12;;;;;;;6.50;3.28;;;18.20;90.60;;;;;;4193316;28;20219;-74
2022/02/12 09:21:15;;;;;;;5.40;3.15;;;18.30;90.60;;;;;;4192722;28;20284;-73
2022/02/12 09:23:17;;;;;;;4.65;2.90;;;18.30;90.60;;;;;;4192571;28;20288;-74
2022/02/12 09:25:19;;;;;;;5.88;3.20;;;18.30;90.60;;;;;;4192864;28;20324;-74
2022/02/12 09:27:21;;;;;;;6.88;2.85;;;18.30;90.70;;;;;;4192902;28;20280;-74
2022/02/12 09:29:24;;;;;;;5.30;3.15;;;18.30;90.60;;;;;;4193074;28;20252;-74
2022/02/12 09:31:28;;;;;;;8.05;3.33;;;18.30;90.80;;;;;;4193058;28;20332;-74
2022/02/12 09:33:30;;;;;;;6.13;2.90;;;18.30;90.80;;;;;;4193000;28;20215;-74
2022/02/12 09:35:32;;;;;;;4.68;2.75;;;18.30;90.70;;;;;;4192221;28;20218;-74
2022/02/12 09:37:35;;;;;;;6.97;3.65;;;18.30;90.80;;;;;;4196273;28;20620;-74
2022/02/12 09:39:37;;;;;;;7.07;3.15;;;18.30;90.70;;;;;;4195132;28;20214;-74
2022/02/12 09:41:39;;;;;;;5.93;3.28;;;18.40;90.70;;;;;;4196666;28;20218;-74
2022/02/12 09:43:43;;;;;;;6.53;2.70;;;18.40;90.80;;;;;;4197104;28;20242;-74
2022/02/12 09:45:54;;;;;;;4.70;3.00;;;18.30;90.80;;;;;;4195622;28;20215;-74
2022/02/12 09:47:59;;;;;;;5.68;3.30;;;18.40;90.80;;;;;;4195222;28;20219;-74
2022/02/12 09:50:02;;;;;;;5.03;2.83;;;18.40;90.70;;;;;;4195357;28;21035;-74
2022/02/12 09:52:05;;;;;;;5.80;2.65;;;18.40;90.80;;;;;;4197523;28;20207;-74
2022/02/12 09:54:07;;;;;;;6.25;2.95;;;18.40;90.80;;;;;;4197531;28;20253;-74
2022/02/12 09:56:10;;;;;;;5.05;2.90;;;18.40;90.70;;;;;;4195167;28;20215;-74
2022/02/12 09:58:14;;;;;;;6.00;2.63;;;18.40;90.80;;;;;;4197425;28;20215;-74
2022/02/12 10:00:18;;;;;;;5.90;2.50;;;18.50;90.80;;;;;;4196979;28;20210;-74
2022/02/12 10:02:20;;;;;;;5.57;2.70;;;18.50;90.70;;;;;;4197033;28;20239;-74
2022/02/12 10:04:25;;;;;;;5.97;3.15;;;18.50;90.70;;;;;;4197200;28;20258;-74
2022/02/12 10:06:41;;;;;;;6.18;2.90;;;18.40;90.60;;;;;;4197457;28;20211;-74
2022/02/12 10:09:03;;;;;;;8.15;3.10;;;18.40;90.60;;;;;;4195747;28;20636;-74
2022/02/12 10:11:13;;;;;;;7.20;2.60;;;18.50;90.60;;;;;;4192710;28;20207;-72
2022/02/12 10:13:18;;;;;;;6.45;2.78;;;18.50;90.60;;;;;;4193187;28;20215;-72
2022/02/12 10:15:25;;;;;;;6.05;3.03;;;18.50;90.70;;;;;;4197000;28;20534;-71
2022/02/12 10:17:28;;;;;;;4.50;2.33;;;18.50;90.70;;;;;;4196904;28;20215;-71
2022/02/12 10:19:34;;;;;;;5.60;2.40;;;18.50;90.80;;;;;;4196772;28;20215;-72
2022/02/12 10:21:37;;;;;;;5.55;2.83;;;18.50;90.70;;;;;;4194766;28;20623;-72
2022/02/12 10:23:41;;;;;;;6.70;2.67;;;18.50;90.50;;;;;;4196325;28;20231;-71
2022/02/12 10:25:45;;;;;;;5.65;2.67;;;18.50;90.60;;;;;;4196923;28;20269;-72
2022/02/12 10:27:50;;;;;;;5.25;2.78;;;18.50;90.40;;;;;;4196649;28;20231;-72
2022/02/12 10:29:54;;;;;;;5.97;2.85;;;18.50;90.60;;;;;;4196045;28;20260;-72
2022/02/12 10:32:02;;;;;;;5.10;2.78;;;18.50;90.50;;;;;;4196999;28;20659;-72
2022/02/12 10:34:06;;;;;;;5.28;2.22;;;18.50;90.40;;;;;;4196958;28;20206;-71
2022/02/12 10:36:15;;;;;;;5.03;3.00;;;18.50;90.60;;;;;;4196917;28;20671;-71
2022/02/12 10:38:17;;;;;;;4.15;2.65;;;18.60;90.70;;;;;;4195822;28;20203;-71
2022/02/12 10:40:20;;;;;;;4.32;2.60;;;18.60;90.80;;;;;;4192374;28;20268;-71
2022/02/12 10:42:23;;;;;;;6.55;2.53;;;18.60;90.60;;;;;;4197002;28;20215;-72
2022/02/12 10:44:26;;;;;;;6.55;2.60;;;18.50;90.60;;;;;;4196501;28;20279;-71